createdAt,value
2019-04-29T00:02:11.791Z,12.70
2019-04-29T00:04:41.230Z,7.30
2019-04-29T00:07:10.744Z,10.87
2019-04-29T00:09:40.179Z,8.90
2019-04-29T00:12:09.945Z,10.77
2019-04-29T00:14:41.090Z,16.33
2019-04-29T00:17:10.310Z,9.67
2019-04-29T00:19:56.986Z,14.87
2019-04-29T00:22:26.426Z,11.17
2019-04-29T00:24:55.853Z,12.87
2019-04-29T00:27:25.351Z,16.60
2019-04-29T00:29:54.809Z,8.27
2019-04-29T00:32:24.233Z,21.87
2019-04-29T00:34:53.691Z,11.10
2019-04-29T00:37:22.889Z,7.87
2019-04-29T00:40:09.562Z,11.37
2019-04-29T00:42:43.048Z,6.30
2019-04-29T00:45:12.895Z,9.37
2019-04-29T00:47:42.347Z,14.70
2019-04-29T00:50:12.411Z,11.60
2019-04-29T00:52:41.857Z,11.70
2019-04-29T00:55:13.013Z,11.00
2019-04-29T00:57:42.459Z,8.90
2019-04-29T01:00:15.563Z,10.23
2019-04-29T01:02:45.001Z,6.83
2019-04-29T01:05:14.533Z,24.97
2019-04-29T01:07:43.943Z,6.37
2019-04-29T01:10:13.772Z,8.47
2019-04-29T01:12:43.222Z,17.73
2019-04-29T01:15:12.924Z,13.00
2019-04-29T01:17:42.360Z,11.40
2019-04-29T01:20:12.805Z,7.77
2019-04-29T01:22:43.811Z,12.30
2019-04-29T01:25:13.356Z,13.17
2019-04-29T01:27:44.504Z,10.00
2019-04-29T01:30:41.014Z,10.30
2019-04-29T01:33:10.518Z,16.70
2019-04-29T01:35:39.961Z,12.87
2019-04-29T01:38:09.405Z,23.43
2019-04-29T01:40:49.016Z,8.30
2019-04-29T01:43:18.446Z,18.60
2019-04-29T01:45:47.890Z,8.40
2019-04-29T01:48:17.310Z,9.57
2019-04-29T01:50:46.756Z,8.30
2019-04-29T01:53:16.185Z,16.30
2019-04-29T01:55:45.611Z,11.80
2019-04-29T01:58:15.322Z,13.83
2019-04-29T02:00:44.752Z,12.90
2019-04-29T02:03:14.186Z,11.73
2019-04-29T02:05:43.622Z,14.57
2019-04-29T02:08:13.040Z,8.93
2019-04-29T02:10:42.496Z,19.07
2019-04-29T02:13:11.921Z,10.87
2019-04-29T02:15:41.394Z,11.07
2019-04-29T02:18:10.839Z,29.43
2019-04-29T02:20:40.513Z,10.43
2019-04-29T02:23:14.250Z,8.33
2019-04-29T02:25:47.981Z,13.53
2019-04-29T02:28:17.412Z,14.93
2019-04-29T02:30:50.146Z,10.80
2019-04-29T02:33:19.566Z,15.40
2019-04-29T02:35:48.998Z,9.93
2019-04-29T02:38:20.124Z,12.17
2019-04-29T02:40:53.866Z,11.00
2019-04-29T02:43:24.937Z,13.10
2019-04-29T02:45:54.387Z,48.27
2019-04-29T02:48:26.418Z,10.37
2019-04-29T02:50:54.986Z,11.30
2019-04-29T02:53:25.071Z,20.27
2019-04-29T02:55:56.144Z,10.13
2019-04-29T02:58:35.760Z,11.63
2019-04-29T03:01:22.391Z,9.43
2019-04-29T03:04:05.429Z,11.53
2019-04-29T03:06:35.170Z,15.53
2019-04-29T03:09:06.576Z,10.80
2019-04-29T03:11:36.004Z,7.43
2019-04-29T03:14:05.516Z,19.10
2019-04-29T03:16:35.092Z,9.17
2019-04-29T03:19:11.987Z,11.13
2019-04-29T03:21:43.127Z,8.27
2019-04-29T03:24:12.550Z,26.83
2019-04-29T03:26:42.003Z,13.10
2019-04-29T03:29:22.968Z,11.67
2019-04-29T03:31:53.791Z,10.40
2019-04-29T03:34:23.234Z,9.80
2019-04-29T03:36:52.741Z,12.10
2019-04-29T03:39:22.266Z,10.97
2019-04-29T03:41:51.757Z,11.00
2019-04-29T03:44:21.187Z,10.90
2019-04-29T03:46:50.700Z,13.73
2019-04-29T03:49:20.165Z,13.50
2019-04-29T03:51:49.596Z,9.43
2019-04-29T03:54:19.021Z,8.03
2019-04-29T03:56:48.443Z,9.67
2019-04-29T03:59:17.885Z,8.37
2019-04-29T04:01:51.371Z,11.67
2019-04-29T04:04:24.893Z,11.43
2019-04-29T04:06:58.590Z,8.90
2019-04-29T04:09:29.413Z,7.53
2019-04-29T04:11:58.856Z,9.47
2019-04-29T04:14:28.320Z,14.40
2019-04-29T04:16:59.386Z,14.87
2019-04-29T04:19:30.476Z,9.47
2019-04-29T04:21:59.923Z,19.63
2019-04-29T04:24:29.337Z,24.30
2019-04-29T04:26:58.810Z,22.33
2019-04-29T04:29:28.241Z,16.07
2019-04-29T04:31:57.672Z,24.57
2019-04-29T04:34:27.132Z,27.07
2019-04-29T04:37:00.256Z,15.20
2019-04-29T04:39:29.359Z,15.80
2019-04-29T04:41:58.794Z,13.97
2019-04-29T04:44:29.870Z,14.50
2019-04-29T04:46:59.344Z,18.73
2019-04-29T04:49:28.752Z,23.10
2019-04-29T04:51:58.191Z,28.50
2019-04-29T04:54:31.314Z,18.40
2019-04-29T04:56:58.796Z,27.10
2019-04-29T04:59:28.310Z,21.00
2019-04-29T05:01:57.761Z,13.00
2019-04-29T05:04:27.208Z,23.80
2019-04-29T05:06:56.642Z,18.47
2019-04-29T05:09:26.075Z,19.73
2019-04-29T05:11:55.521Z,12.13
2019-04-29T05:14:24.954Z,16.87
2019-04-29T05:16:54.411Z,23.33
2019-04-29T05:19:23.832Z,20.03
2019-04-29T05:21:53.264Z,13.27
2019-04-29T05:24:22.696Z,10.97
2019-04-29T05:26:52.149Z,16.43
2019-04-29T05:29:21.862Z,13.30
2019-04-29T05:31:51.292Z,14.07
2019-04-29T05:34:22.381Z,13.37
2019-04-29T05:36:53.471Z,11.60
2019-04-29T05:39:27.249Z,10.33
2019-04-29T05:41:56.706Z,20.70
2019-04-29T05:44:30.709Z,18.67
2019-04-29T05:47:18.072Z,15.67
2019-04-29T05:49:49.161Z,20.33
2019-04-29T05:52:20.263Z,13.77
2019-04-29T05:54:49.702Z,12.47
2019-04-29T05:57:20.469Z,12.63
2019-04-29T05:59:50.298Z,7.70
2019-04-29T06:02:19.726Z,9.83
2019-04-29T06:04:52.414Z,12.17
2019-04-29T06:07:21.510Z,17.10
2019-04-29T06:09:51.710Z,11.17
2019-04-29T06:12:21.149Z,21.13
2019-04-29T06:14:50.600Z,15.20
2019-04-29T06:17:20.031Z,12.80
2019-04-29T06:19:49.476Z,13.00
2019-04-29T06:22:18.922Z,13.47
2019-04-29T06:24:48.354Z,10.03
2019-04-29T06:27:17.784Z,11.87
2019-04-29T06:29:47.240Z,8.17
2019-04-29T06:32:20.204Z,12.87
2019-04-29T06:34:47.814Z,11.70
2019-04-29T06:37:17.308Z,9.50
2019-04-29T06:39:46.744Z,9.10
2019-04-29T06:42:19.571Z,11.10
2019-04-29T06:44:48.941Z,12.73
2019-04-29T06:47:18.509Z,16.90
2019-04-29T06:49:48.146Z,12.97
2019-04-29T06:52:17.607Z,16.63
2019-04-29T06:54:47.039Z,11.60
2019-04-29T06:57:16.463Z,12.33
2019-04-29T06:59:47.558Z,10.63
2019-04-29T07:02:17.071Z,19.20
2019-04-29T07:04:46.497Z,15.73
2019-04-29T07:07:15.975Z,14.13
2019-04-29T07:09:45.649Z,17.33
2019-04-29T07:12:15.096Z,14.23
2019-04-29T07:14:44.547Z,16.13
2019-04-29T07:17:14.083Z,12.47
2019-04-29T07:19:43.535Z,16.63
2019-04-29T07:22:12.972Z,16.23
2019-04-29T07:24:42.418Z,13.60
2019-04-29T07:27:11.828Z,13.27
2019-04-29T07:29:41.277Z,11.67
2019-04-29T07:32:10.817Z,12.07
2019-04-29T07:34:40.225Z,13.43
2019-04-29T07:37:09.676Z,15.17
2019-04-29T07:39:39.126Z,16.90
2019-04-29T07:42:08.558Z,12.07
2019-04-29T07:44:48.908Z,14.20
2019-04-29T07:47:16.692Z,19.00
2019-04-29T07:49:47.337Z,20.77
2019-04-29T07:52:17.294Z,14.70
2019-04-29T07:54:48.217Z,21.50
2019-04-29T07:57:18.118Z,19.00
2019-04-29T07:59:47.502Z,11.87
2019-04-29T08:02:16.931Z,21.03
2019-04-29T08:04:46.378Z,18.93
2019-04-29T08:07:16.552Z,16.60
2019-04-29T08:09:46.004Z,15.80
2019-04-29T08:12:16.198Z,14.50
2019-04-29T08:14:47.156Z,15.17
2019-04-29T08:17:16.604Z,16.60
2019-04-29T08:19:46.050Z,14.57
2019-04-29T08:22:18.212Z,21.00
2019-04-29T08:24:50.452Z,18.50
2019-04-29T08:27:17.794Z,17.77
2019-04-29T08:29:47.252Z,14.33
2019-04-29T08:32:16.690Z,15.07
2019-04-29T08:34:46.128Z,16.27
2019-04-29T08:37:15.571Z,16.30
2019-04-29T08:39:45.016Z,15.43
2019-04-29T08:42:16.167Z,13.13
2019-04-29T08:44:47.240Z,16.47
2019-04-29T08:47:23.590Z,11.00
2019-04-29T08:49:52.258Z,13.87
2019-04-29T08:52:21.701Z,18.00
2019-04-29T08:54:55.487Z,14.53
2019-04-29T08:57:22.320Z,15.87
2019-04-29T08:59:51.786Z,16.17
2019-04-29T09:02:33.662Z,13.73
2019-04-29T09:04:53.707Z,18.87
2019-04-29T09:07:23.499Z,14.80
2019-04-29T09:09:56.064Z,18.00
2019-04-29T09:12:29.063Z,12.60
2019-04-29T09:14:55.498Z,14.27
2019-04-29T09:17:24.972Z,18.93
2019-04-29T09:19:54.419Z,16.03
2019-04-29T09:22:25.505Z,16.27
2019-04-29T09:25:12.449Z,13.27
2019-04-29T09:27:44.946Z,18.30
2019-04-29T09:30:16.722Z,19.43
2019-04-29T09:32:46.148Z,22.87
2019-04-29T09:35:15.827Z,18.97
2019-04-29T09:37:45.283Z,17.60
2019-04-29T09:40:16.763Z,12.83
2019-04-29T09:42:50.205Z,17.60
2019-04-29T09:45:26.187Z,21.93
2019-04-29T09:47:55.648Z,19.80
2019-04-29T09:50:25.084Z,18.87
2019-04-29T09:52:55.312Z,19.93
2019-04-29T09:55:25.335Z,18.27
2019-04-29T09:57:54.761Z,17.40
2019-04-29T10:00:42.063Z,20.27
2019-04-29T10:03:16.157Z,21.17
2019-04-29T10:05:49.899Z,21.97
2019-04-29T10:08:19.349Z,21.80
2019-04-29T10:10:48.860Z,20.57
2019-04-29T10:13:18.467Z,22.40
2019-04-29T10:15:55.849Z,16.20
2019-04-29T10:18:33.964Z,17.50
2019-04-29T10:21:16.597Z,21.90
2019-04-29T10:23:45.272Z,19.40
2019-04-29T10:26:14.718Z,17.30
2019-04-29T10:29:00.997Z,17.30
2019-04-29T10:31:30.515Z,15.73
2019-04-29T10:33:59.950Z,18.80
2019-04-29T10:36:29.390Z,16.10
2019-04-29T10:39:00.475Z,14.97
2019-04-29T10:41:36.059Z,18.53
2019-04-29T10:44:09.145Z,30.37
2019-04-29T10:46:40.218Z,16.90
2019-04-29T10:49:23.481Z,15.20
2019-04-29T10:51:52.919Z,18.00
2019-04-29T10:54:22.364Z,19.97
2019-04-29T10:56:51.955Z,16.33
2019-04-29T10:59:34.977Z,17.87
2019-04-29T11:02:14.308Z,14.20
2019-04-29T11:04:41.483Z,14.70
2019-04-29T11:07:18.490Z,18.73
2019-04-29T11:09:53.077Z,19.00
2019-04-29T11:12:22.511Z,14.77
2019-04-29T11:14:51.966Z,22.03
2019-04-29T11:17:23.290Z,17.70
2019-04-29T11:19:52.725Z,14.47
2019-04-29T11:22:23.806Z,17.50
2019-04-29T11:24:55.078Z,18.47
2019-04-29T11:27:28.914Z,17.20
2019-04-29T11:30:02.377Z,14.03
2019-04-29T11:32:34.006Z,16.27
2019-04-29T11:35:24.553Z,13.37
2019-04-29T11:37:55.398Z,14.30
2019-04-29T11:40:26.028Z,14.70
2019-04-29T11:42:54.848Z,16.10
2019-04-29T11:45:24.520Z,17.73
2019-04-29T11:47:53.999Z,19.33
2019-04-29T11:50:26.934Z,18.30
2019-04-29T11:52:57.157Z,15.47
2019-04-29T11:55:26.630Z,14.33
2019-04-29T11:57:57.699Z,17.27
2019-04-29T12:00:44.402Z,17.43
2019-04-29T12:03:19.030Z,15.60
2019-04-29T12:05:50.898Z,14.20
2019-04-29T12:08:20.394Z,15.50
2019-04-29T12:11:06.227Z,13.57
2019-04-29T12:13:27.172Z,15.93
2019-04-29T12:15:58.837Z,13.37
2019-04-29T12:18:37.645Z,17.50
2019-04-29T12:21:11.504Z,13.77
2019-04-29T12:23:40.923Z,14.50
2019-04-29T12:26:10.627Z,17.57
2019-04-29T12:28:42.701Z,16.50
2019-04-29T12:31:28.687Z,14.77
2019-04-29T12:34:17.933Z,11.33
2019-04-29T12:36:56.215Z,21.13
2019-04-29T12:39:43.324Z,17.40
2019-04-29T12:42:21.122Z,15.63
2019-04-29T12:44:52.213Z,13.20
2019-04-29T12:47:27.242Z,11.27
2019-04-29T12:49:56.721Z,17.90
2019-04-29T12:52:26.441Z,16.13
2019-04-29T12:54:55.869Z,15.63
2019-04-29T12:57:25.336Z,15.63
2019-04-29T12:59:55.050Z,15.20
2019-04-29T13:02:42.173Z,15.33
2019-04-29T13:05:15.838Z,14.93
2019-04-29T13:07:49.571Z,11.70
2019-04-29T13:10:23.802Z,15.03
2019-04-29T13:12:53.243Z,10.90
2019-04-29T13:15:39.457Z,14.60
2019-04-29T13:18:15.933Z,12.37
2019-04-29T13:20:45.977Z,14.87
2019-04-29T13:23:19.527Z,14.70
2019-04-29T13:25:46.557Z,14.17
2019-04-29T13:28:29.524Z,20.90
2019-04-29T13:30:51.394Z,12.77
2019-04-29T13:33:19.341Z,13.07
2019-04-29T13:35:49.680Z,15.80
2019-04-29T13:38:19.174Z,14.47
2019-04-29T13:40:48.626Z,11.40
2019-04-29T13:43:20.792Z,10.37
2019-04-29T13:45:50.877Z,17.50
2019-04-29T13:48:24.444Z,19.73
2019-04-29T13:50:55.519Z,16.97
2019-04-29T13:53:25.339Z,14.70
2019-04-29T13:56:10.404Z,14.00
2019-04-29T13:58:27.220Z,18.70
2019-04-29T14:01:00.045Z,17.00
2019-04-29T14:03:37.341Z,13.10
2019-04-29T14:06:08.420Z,19.23
2019-04-29T14:08:37.948Z,13.67
2019-04-29T14:11:07.420Z,15.47
2019-04-29T14:13:38.860Z,14.10
2019-04-29T14:16:11.947Z,20.67
2019-04-29T14:18:39.253Z,19.60
2019-04-29T14:21:11.852Z,19.23
2019-04-29T14:23:39.855Z,14.67
2019-04-29T14:26:09.304Z,15.37
2019-04-29T14:28:38.730Z,18.53
2019-04-29T14:31:08.252Z,20.00
2019-04-29T14:33:47.949Z,17.43
2019-04-29T14:36:19.974Z,15.07
2019-04-29T14:38:48.579Z,17.40
2019-04-29T14:41:19.285Z,20.50
2019-04-29T14:43:54.908Z,18.83
2019-04-29T14:46:39.445Z,22.43
2019-04-29T14:49:13.193Z,16.73
2019-04-29T14:51:42.645Z,18.90
2019-04-29T14:54:12.088Z,29.50
2019-04-29T14:56:41.572Z,16.67
2019-04-29T14:59:11.089Z,19.20
2019-04-29T15:01:42.243Z,14.60
2019-04-29T15:04:18.606Z,32.50
2019-04-29T15:06:44.529Z,18.13
2019-04-29T15:09:17.803Z,24.30
2019-04-29T15:11:47.450Z,17.57
2019-04-29T15:14:34.581Z,18.57
2019-04-29T15:17:17.548Z,19.50
2019-04-29T15:19:49.427Z,16.93
2019-04-29T15:22:19.565Z,24.20
2019-04-29T15:24:49.036Z,21.40
2019-04-29T15:27:18.480Z,19.10
2019-04-29T15:29:47.922Z,17.27
2019-04-29T15:32:17.903Z,21.10
2019-04-29T15:34:49.783Z,17.43
2019-04-29T15:37:19.241Z,18.73
2019-04-29T15:39:48.701Z,20.60
2019-04-29T15:42:18.132Z,21.10
2019-04-29T15:44:51.371Z,22.97
2019-04-29T15:47:18.877Z,20.63
2019-04-29T15:49:48.322Z,23.00
2019-04-29T15:52:20.884Z,21.43
2019-04-29T15:54:51.018Z,24.60
2019-04-29T15:57:20.211Z,22.93
2019-04-29T15:59:58.877Z,25.53
2019-04-29T16:02:21.672Z,20.20
2019-04-29T16:04:58.161Z,17.47
2019-04-29T16:07:29.886Z,22.60
2019-04-29T16:10:07.862Z,19.40
2019-04-29T16:12:50.897Z,19.07
2019-04-29T16:15:18.827Z,22.80
2019-04-29T16:17:48.333Z,21.90
2019-04-29T16:20:17.789Z,17.87
2019-04-29T16:22:47.225Z,19.07
2019-04-29T16:25:16.677Z,26.23
2019-04-29T16:27:53.018Z,18.60
2019-04-29T16:30:19.131Z,28.50
2019-04-29T16:32:48.621Z,21.20
2019-04-29T16:35:23.859Z,18.23
2019-04-29T16:37:49.368Z,19.60
2019-04-29T16:40:19.132Z,16.47
2019-04-29T16:42:53.159Z,23.37
2019-04-29T16:45:24.256Z,24.50
2019-04-29T16:47:53.713Z,21.57
2019-04-29T16:50:23.162Z,22.57
2019-04-29T16:52:52.601Z,18.77
2019-04-29T16:55:22.123Z,20.33
2019-04-29T16:57:51.628Z,24.47
2019-04-29T17:00:23.057Z,21.80
2019-04-29T17:02:52.505Z,17.80
2019-04-29T17:05:21.957Z,21.47
2019-04-29T17:07:51.418Z,18.77
2019-04-29T17:10:31.330Z,18.33
2019-04-29T17:13:00.790Z,19.27
2019-04-29T17:15:30.656Z,27.30
2019-04-29T17:18:00.179Z,20.67
2019-04-29T17:20:29.711Z,21.57
2019-04-29T17:22:59.149Z,22.30
2019-04-29T17:25:28.612Z,21.00
2019-04-29T17:28:24.325Z,21.30
2019-04-29T17:31:11.740Z,28.93
2019-04-29T17:33:52.897Z,27.57
2019-04-29T17:36:24.077Z,27.80
2019-04-29T17:38:53.796Z,27.13
2019-04-29T17:41:23.233Z,27.37
2019-04-29T17:43:59.759Z,31.03
2019-04-29T17:46:46.643Z,28.57
2019-04-29T17:49:30.799Z,36.40
2019-04-29T17:52:02.759Z,34.13
2019-04-29T17:54:34.831Z,33.03
2019-04-29T17:57:25.559Z,35.70
2019-04-29T17:59:43.662Z,30.63
2019-04-29T18:02:31.071Z,35.70
2019-04-29T18:05:02.230Z,31.70
2019-04-29T18:07:45.096Z,29.70
2019-04-29T18:10:29.444Z,30.77
2019-04-29T18:12:58.460Z,38.03
2019-04-29T18:15:41.909Z,31.50
2019-04-29T18:18:07.266Z,34.90
2019-04-29T18:20:35.758Z,39.47
2019-04-29T18:23:19.100Z,41.70
2019-04-29T18:25:51.236Z,39.03
2019-04-29T18:28:20.693Z,34.67
2019-04-29T18:30:56.066Z,36.87
2019-04-29T18:33:23.443Z,35.60
2019-04-29T18:36:02.085Z,35.23
2019-04-29T18:38:26.205Z,36.00
2019-04-29T18:40:55.883Z,33.17
2019-04-29T18:43:26.572Z,40.63
2019-04-29T18:45:58.986Z,39.60
2019-04-29T18:48:27.548Z,37.10
2019-04-29T18:50:57.238Z,38.70
2019-04-29T18:53:26.708Z,34.20
2019-04-29T18:55:56.135Z,34.90
2019-04-29T18:58:25.589Z,35.40
2019-04-29T19:00:56.441Z,33.83
2019-04-29T19:03:39.357Z,29.00
2019-04-29T19:06:10.069Z,30.97
2019-04-29T19:08:40.678Z,31.70
2019-04-29T19:11:10.132Z,29.07
2019-04-29T19:13:39.640Z,30.00
2019-04-29T19:16:12.326Z,32.43
2019-04-29T19:18:40.245Z,32.43
2019-04-29T19:21:09.690Z,27.97
2019-04-29T19:23:39.136Z,26.40
2019-04-29T19:26:08.583Z,31.60
2019-04-29T19:28:38.035Z,30.30
2019-04-29T19:31:09.805Z,32.00
2019-04-29T19:33:39.473Z,27.27
2019-04-29T19:36:17.375Z,27.73
2019-04-29T19:38:43.291Z,30.23
2019-04-29T19:41:15.909Z,30.53
2019-04-29T19:43:42.614Z,26.77
2019-04-29T19:46:21.832Z,28.93
2019-04-29T19:48:45.008Z,28.07
2019-04-29T19:51:18.103Z,25.97
2019-04-29T19:53:49.440Z,21.63
2019-04-29T19:56:23.109Z,24.47
2019-04-29T19:58:48.542Z,23.90
2019-04-29T20:01:26.446Z,22.30
2019-04-29T20:03:57.745Z,24.77
2019-04-29T20:06:30.318Z,25.67
2019-04-29T20:09:02.034Z,27.03
2019-04-29T20:11:33.618Z,25.17
2019-04-29T20:14:05.306Z,25.97
2019-04-29T20:16:57.253Z,23.17
2019-04-29T20:19:37.900Z,29.73
2019-04-29T20:22:09.352Z,30.13
2019-04-29T20:24:38.909Z,35.30
2019-04-29T20:27:08.581Z,33.93
2019-04-29T20:29:38.883Z,30.93
2019-04-29T20:32:08.747Z,29.40
2019-04-29T20:34:38.407Z,37.87
2019-04-29T20:37:10.667Z,40.47
2019-04-29T20:39:39.191Z,30.50
2019-04-29T20:42:10.433Z,39.53
2019-04-29T20:44:44.809Z,37.00
2019-04-29T20:47:22.285Z,45.13
2019-04-29T20:49:42.314Z,38.80
2019-04-29T20:52:20.350Z,45.73
2019-04-29T20:54:45.191Z,54.20
2019-04-29T20:57:20.399Z,42.80
2019-04-29T20:59:50.292Z,37.30
2019-04-29T21:02:30.021Z,35.57
2019-04-29T21:04:49.549Z,44.67
2019-04-29T21:07:23.684Z,47.00
2019-04-29T21:09:50.246Z,41.07
2019-04-29T21:12:21.891Z,37.53
2019-04-29T21:15:01.849Z,41.43
2019-04-29T21:17:31.904Z,44.67
2019-04-29T21:20:01.545Z,39.17
2019-04-29T21:22:31.022Z,44.20
2019-04-29T21:25:00.482Z,46.43
2019-04-29T21:27:29.900Z,43.47
2019-04-29T21:29:59.321Z,45.13
2019-04-29T21:32:30.561Z,41.63
2019-04-29T21:35:18.414Z,46.73
2019-04-29T21:37:53.139Z,42.10
2019-04-29T21:40:26.931Z,36.90
2019-04-29T21:42:57.977Z,37.40
2019-04-29T21:45:27.426Z,45.20
2019-04-29T21:47:56.854Z,37.20
2019-04-29T21:50:29.059Z,39.07
2019-04-29T21:53:02.058Z,38.27
2019-04-29T21:55:29.488Z,38.00
2019-04-29T21:58:00.137Z,49.23
2019-04-29T22:00:30.115Z,39.20
2019-04-29T22:02:59.542Z,39.27
2019-04-29T22:05:29.048Z,35.53
2019-04-29T22:07:58.576Z,38.17
2019-04-29T22:10:29.057Z,39.70
2019-04-29T22:13:02.151Z,41.30
2019-04-29T22:15:33.349Z,36.00
2019-04-29T22:18:01.805Z,42.10
2019-04-29T22:20:35.587Z,42.43
2019-04-29T22:23:08.369Z,47.10
2019-04-29T22:25:36.673Z,42.43
2019-04-29T22:28:06.213Z,38.87
2019-04-29T22:30:35.665Z,35.60
2019-04-29T22:33:05.319Z,36.73
2019-04-29T22:35:37.276Z,36.47
2019-04-29T22:38:07.881Z,35.90
2019-04-29T22:40:41.306Z,39.87
2019-04-29T22:43:10.377Z,45.87
2019-04-29T22:45:39.791Z,47.53
2019-04-29T22:48:14.821Z,39.77
2019-04-29T22:50:40.415Z,40.90
2019-04-29T22:53:09.856Z,36.80
2019-04-29T22:55:39.322Z,38.63
2019-04-29T22:58:10.127Z,39.87
2019-04-29T23:00:39.740Z,42.83
2019-04-29T23:03:09.192Z,39.83
2019-04-29T23:05:38.621Z,31.53
2019-04-29T23:08:08.060Z,36.67
2019-04-29T23:10:37.503Z,31.07
2019-04-29T23:13:06.947Z,37.70
2019-04-29T23:15:36.422Z,37.67
2019-04-29T23:18:06.939Z,35.93
2019-04-29T23:20:55.270Z,43.90
2019-04-29T23:23:33.711Z,38.77
2019-04-29T23:26:04.128Z,44.13
2019-04-29T23:28:31.988Z,42.00
2019-04-29T23:31:01.540Z,38.30
2019-04-29T23:33:31.028Z,38.10
2019-04-29T23:36:00.515Z,38.27
2019-04-29T23:38:30.084Z,40.47
2019-04-29T23:40:59.559Z,42.60
2019-04-29T23:43:28.998Z,43.50
2019-04-29T23:46:00.453Z,39.63
2019-04-29T23:48:38.860Z,44.20
2019-04-29T23:51:00.770Z,36.97
2019-04-29T23:53:30.200Z,44.70
2019-04-29T23:56:04.292Z,43.50
2019-04-29T23:58:37.022Z,47.63
